sensor_id;sensor_type;location;lat;lon;timestamp;P1;durP1;ratioP1;P2;durP2;ratioP2
16029;SDS011;34770;49.272;11.070;2023-02-01T00:01:48;11.90;;;8.40;;
16029;SDS011;34770;49.272;11.070;2023-02-01T00:04:13;12.23;;;8.10;;
16029;SDS011;34770;49.272;11.070;2023-02-01T00:06:39;8.47;;;6.67;;
16029;SDS011;34770;49.272;11.070;2023-02-01T00:09:04;12.53;;;7.70;;
16029;SDS011;34770;49.272;11.070;2023-02-01T00:11:29;7.50;;;6.13;;
16029;SDS011;34770;49.272;11.070;2023-02-01T00:13:56;9.63;;;7.23;;
16029;SDS011;34770;49.272;11.070;2023-02-01T00:16:23;9.30;;;7.70;;
16029;SDS011;34770;49.272;11.070;2023-02-01T00:18:51;8.23;;;6.70;;
16029;SDS011;34770;49.272;11.070;2023-02-01T00:21:21;6.03;;;4.70;;
16029;SDS011;34770;49.272;11.070;2023-02-01T00:23:47;10.97;;;7.17;;
16029;SDS011;34770;49.272;11.070;2023-02-01T00:26:16;12.77;;;7.83;;
16029;SDS011;34770;49.272;11.070;2023-02-01T00:28:44;8.30;;;6.90;;
16029;SDS011;34770;49.272;11.070;2023-02-01T00:31:10;9.17;;;7.70;;
16029;SDS011;34770;49.272;11.070;2023-02-01T00:33:35;10.17;;;7.70;;
16029;SDS011;34770;49.272;11.070;2023-02-01T00:36:02;11.60;;;7.20;;
16029;SDS011;34770;49.272;11.070;2023-02-01T00:38:29;10.23;;;6.73;;
16029;SDS011;34770;49.272;11.070;2023-02-01T00:41:01;9.87;;;7.70;;
16029;SDS011;34770;49.272;11.070;2023-02-01T00:43:28;9.97;;;7.80;;
16029;SDS011;34770;49.272;11.070;2023-02-01T00:45:55;9.03;;;7.23;;
16029;SDS011;34770;49.272;11.070;2023-02-01T00:48:20;10.00;;;7.97;;
16029;SDS011;34770;49.272;11.070;2023-02-01T00:50:45;8.90;;;6.67;;
16029;SDS011;34770;49.272;11.070;2023-02-01T00:53:11;9.10;;;7.10;;
16029;SDS011;34770;49.272;11.070;2023-02-01T00:55:36;9.13;;;5.73;;
16029;SDS011;34770;49.272;11.070;2023-02-01T00:58:02;8.10;;;6.30;;
16029;SDS011;34770;49.272;11.070;2023-02-01T01:00:28;10.43;;;8.07;;
16029;SDS011;34770;49.272;11.070;2023-02-01T01:02:54;10.20;;;8.03;;
16029;SDS011;34770;49.272;11.070;2023-02-01T01:05:19;10.33;;;7.50;;
16029;SDS011;34770;49.272;11.070;2023-02-01T01:07:45;9.60;;;7.93;;
16029;SDS011;34770;49.272;11.070;2023-02-01T01:10:10;8.23;;;6.33;;
16029;SDS011;34770;49.272;11.070;2023-02-01T01:12:36;7.07;;;5.57;;
16029;SDS011;34770;49.272;11.070;2023-02-01T01:15:01;9.20;;;6.87;;
16029;SDS011;34770;49.272;11.070;2023-02-01T01:17:27;7.77;;;6.20;;
16029;SDS011;34770;49.272;11.070;2023-02-01T01:19:53;8.47;;;6.53;;
16029;SDS011;34770;49.272;11.070;2023-02-01T01:22:19;8.33;;;6.47;;
16029;SDS011;34770;49.272;11.070;2023-02-01T01:24:44;8.03;;;7.00;;
16029;SDS011;34770;49.272;11.070;2023-02-01T01:27:10;8.83;;;7.07;;
16029;SDS011;34770;49.272;11.070;2023-02-01T01:29:37;10.30;;;6.53;;
16029;SDS011;34770;49.272;11.070;2023-02-01T01:32:03;10.03;;;7.10;;
16029;SDS011;34770;49.272;11.070;2023-02-01T01:34:29;7.83;;;5.80;;
16029;SDS011;34770;49.272;11.070;2023-02-01T01:36:54;7.63;;;6.20;;
16029;SDS011;34770;49.272;11.070;2023-02-01T01:39:20;8.60;;;7.47;;
16029;SDS011;34770;49.272;11.070;2023-02-01T01:41:46;9.57;;;6.47;;
16029;SDS011;34770;49.272;11.070;2023-02-01T01:47:15;8.07;;;7.27;;
16029;SDS011;34770;49.272;11.070;2023-02-01T01:49:41;7.77;;;6.53;;
16029;SDS011;34770;49.272;11.070;2023-02-01T01:52:07;10.40;;;6.67;;
16029;SDS011;34770;49.272;11.070;2023-02-01T01:54:41;10.17;;;7.80;;
16029;SDS011;34770;49.272;11.070;2023-02-01T01:57:20;8.47;;;7.03;;
16029;SDS011;34770;49.272;11.070;2023-02-01T01:59:53;10.67;;;6.73;;
16029;SDS011;34770;49.272;11.070;2023-02-01T02:02:25;6.63;;;5.87;;
16029;SDS011;34770;49.272;11.070;2023-02-01T02:04:50;9.13;;;5.47;;
16029;SDS011;34770;49.272;11.070;2023-02-01T02:07:17;8.20;;;6.03;;
16029;SDS011;34770;49.272;11.070;2023-02-01T02:09:47;6.80;;;6.00;;
16029;SDS011;34770;49.272;11.070;2023-02-01T02:12:12;7.60;;;6.00;;
16029;SDS011;34770;49.272;11.070;2023-02-01T02:14:38;7.23;;;5.50;;
16029;SDS011;34770;49.272;11.070;2023-02-01T02:28:09;7.97;;;5.97;;
16029;SDS011;34770;49.272;11.070;2023-02-01T02:33:18;6.00;;;5.43;;
16029;SDS011;34770;49.272;11.070;2023-02-01T02:38:56;6.17;;;5.57;;
16029;SDS011;34770;49.272;11.070;2023-02-01T02:41:46;5.93;;;5.33;;
16029;SDS011;34770;49.272;11.070;2023-02-01T02:44:56;6.40;;;5.77;;
16029;SDS011;34770;49.272;11.070;2023-02-01T02:56:44;7.43;;;5.73;;
16029;SDS011;34770;49.272;11.070;2023-02-01T02:59:28;7.60;;;5.57;;
16029;SDS011;34770;49.272;11.070;2023-02-01T03:02:13;7.57;;;5.90;;
16029;SDS011;34770;49.272;11.070;2023-02-01T03:05:03;6.50;;;5.83;;
16029;SDS011;34770;49.272;11.070;2023-02-01T03:10:11;6.70;;;5.63;;
16029;SDS011;34770;49.272;11.070;2023-02-01T03:12:45;7.10;;;5.50;;
16029;SDS011;34770;49.272;11.070;2023-02-01T03:15:31;7.23;;;6.00;;
16029;SDS011;34770;49.272;11.070;2023-02-01T03:18:01;6.47;;;5.87;;
16029;SDS011;34770;49.272;11.070;2023-02-01T03:20:32;9.43;;;5.77;;
16029;SDS011;34770;49.272;11.070;2023-02-01T03:22:58;6.77;;;5.10;;
16029;SDS011;34770;49.272;11.070;2023-02-01T03:25:28;6.63;;;5.47;;
16029;SDS011;34770;49.272;11.070;2023-02-01T03:27:59;6.43;;;5.73;;
16029;SDS011;34770;49.272;11.070;2023-02-01T03:30:37;6.77;;;5.90;;
16029;SDS011;34770;49.272;11.070;2023-02-01T03:33:08;4.70;;;3.93;;
16029;SDS011;34770;49.272;11.070;2023-02-01T03:38:32;5.90;;;5.10;;
16029;SDS011;34770;49.272;11.070;2023-02-01T03:43:51;8.20;;;4.27;;
16029;SDS011;34770;49.272;11.070;2023-02-01T03:46:20;8.27;;;6.47;;
16029;SDS011;34770;49.272;11.070;2023-02-01T03:48:54;6.00;;;5.10;;
16029;SDS011;34770;49.272;11.070;2023-02-01T03:51:20;9.07;;;5.10;;
16029;SDS011;34770;49.272;11.070;2023-02-01T03:53:48;6.57;;;5.57;;
16029;SDS011;34770;49.272;11.070;2023-02-01T03:56:15;6.50;;;5.73;;
16029;SDS011;34770;49.272;11.070;2023-02-01T03:58:43;6.53;;;5.63;;
16029;SDS011;34770;49.272;11.070;2023-02-01T04:01:23;6.97;;;5.50;;
16029;SDS011;34770;49.272;11.070;2023-02-01T04:03:49;5.77;;;4.17;;
16029;SDS011;34770;49.272;11.070;2023-02-01T04:06:16;7.13;;;5.47;;
16029;SDS011;34770;49.272;11.070;2023-02-01T04:08:42;9.13;;;5.90;;
16029;SDS011;34770;49.272;11.070;2023-02-01T04:11:07;5.73;;;5.17;;
16029;SDS011;34770;49.272;11.070;2023-02-01T04:13:33;7.90;;;5.77;;
16029;SDS011;34770;49.272;11.070;2023-02-01T04:15:58;5.70;;;5.10;;
16029;SDS011;34770;49.272;11.070;2023-02-01T04:18:24;4.90;;;4.47;;
16029;SDS011;34770;49.272;11.070;2023-02-01T04:20:49;6.63;;;5.83;;
16029;SDS011;34770;49.272;11.070;2023-02-01T04:23:15;5.83;;;5.23;;
16029;SDS011;34770;49.272;11.070;2023-02-01T04:25:40;6.00;;;5.40;;
16029;SDS011;34770;49.272;11.070;2023-02-01T04:28:06;5.27;;;4.70;;
16029;SDS011;34770;49.272;11.070;2023-02-01T04:30:32;5.53;;;5.03;;
16029;SDS011;34770;49.272;11.070;2023-02-01T04:32:58;6.30;;;5.70;;
16029;SDS011;34770;49.272;11.070;2023-02-01T04:35:23;5.07;;;4.50;;
16029;SDS011;34770;49.272;11.070;2023-02-01T04:37:48;6.00;;;5.40;;
16029;SDS011;34770;49.272;11.070;2023-02-01T04:40:14;6.20;;;5.37;;
16029;SDS011;34770;49.272;11.070;2023-02-01T04:42:39;6.27;;;5.67;;
16029;SDS011;34770;49.272;11.070;2023-02-01T04:45:05;6.47;;;5.17;;
16029;SDS011;34770;49.272;11.070;2023-02-01T04:47:31;7.67;;;5.53;;
16029;SDS011;34770;49.272;11.070;2023-02-01T04:49:56;6.50;;;5.90;;
16029;SDS011;34770;49.272;11.070;2023-02-01T04:52:22;5.80;;;5.23;;
16029;SDS011;34770;49.272;11.070;2023-02-01T04:54:47;7.63;;;5.43;;
16029;SDS011;34770;49.272;11.070;2023-02-01T04:57:13;5.50;;;4.97;;
16029;SDS011;34770;49.272;11.070;2023-02-01T04:59:39;7.23;;;4.97;;
16029;SDS011;34770;49.272;11.070;2023-02-01T05:02:05;5.27;;;4.77;;
16029;SDS011;34770;49.272;11.070;2023-02-01T05:04:31;5.33;;;4.80;;
16029;SDS011;34770;49.272;11.070;2023-02-01T05:06:56;7.10;;;5.33;;
16029;SDS011;34770;49.272;11.070;2023-02-01T05:09:22;5.57;;;4.63;;
16029;SDS011;34770;49.272;11.070;2023-02-01T05:11:47;6.97;;;4.67;;
16029;SDS011;34770;49.272;11.070;2023-02-01T05:14:31;5.00;;;4.60;;
16029;SDS011;34770;49.272;11.070;2023-02-01T05:16:56;6.47;;;4.30;;
16029;SDS011;34770;49.272;11.070;2023-02-01T05:19:22;4.33;;;3.90;;
16029;SDS011;34770;49.272;11.070;2023-02-01T05:21:47;4.93;;;4.10;;
16029;SDS011;34770;49.272;11.070;2023-02-01T05:24:13;5.27;;;4.20;;
16029;SDS011;34770;49.272;11.070;2023-02-01T05:26:39;5.87;;;4.70;;
16029;SDS011;34770;49.272;11.070;2023-02-01T05:29:06;5.50;;;4.60;;
16029;SDS011;34770;49.272;11.070;2023-02-01T05:31:32;7.77;;;4.60;;
16029;SDS011;34770;49.272;11.070;2023-02-01T05:33:58;7.10;;;4.70;;
16029;SDS011;34770;49.272;11.070;2023-02-01T05:36:23;4.77;;;4.30;;
16029;SDS011;34770;49.272;11.070;2023-02-01T05:38:49;6.50;;;5.10;;
16029;SDS011;34770;49.272;11.070;2023-02-01T05:41:15;5.40;;;4.60;;
16029;SDS011;34770;49.272;11.070;2023-02-01T05:43:40;5.53;;;5.03;;
16029;SDS011;34770;49.272;11.070;2023-02-01T05:46:05;4.73;;;4.33;;
16029;SDS011;34770;49.272;11.070;2023-02-01T05:48:31;4.53;;;4.13;;
16029;SDS011;34770;49.272;11.070;2023-02-01T05:50:56;5.67;;;4.27;;
16029;SDS011;34770;49.272;11.070;2023-02-01T05:53:22;4.97;;;4.47;;
16029;SDS011;34770;49.272;11.070;2023-02-01T05:55:48;4.83;;;4.17;;
16029;SDS011;34770;49.272;11.070;2023-02-01T05:58:13;5.23;;;4.23;;
16029;SDS011;34770;49.272;11.070;2023-02-01T06:00:39;5.17;;;4.70;;
16029;SDS011;34770;49.272;11.070;2023-02-01T06:03:04;4.60;;;4.00;;
16029;SDS011;34770;49.272;11.070;2023-02-01T06:05:30;5.03;;;4.40;;
16029;SDS011;34770;49.272;11.070;2023-02-01T06:07:56;6.30;;;4.73;;
16029;SDS011;34770;49.272;11.070;2023-02-01T06:10:22;5.23;;;4.73;;
16029;SDS011;34770;49.272;11.070;2023-02-01T06:12:47;5.80;;;5.20;;
16029;SDS011;34770;49.272;11.070;2023-02-01T06:15:13;5.40;;;4.90;;
16029;SDS011;34770;49.272;11.070;2023-02-01T06:17:43;6.33;;;5.30;;
16029;SDS011;34770;49.272;11.070;2023-02-01T06:20:10;6.50;;;5.17;;
16029;SDS011;34770;49.272;11.070;2023-02-01T06:22:36;5.17;;;4.57;;
16029;SDS011;34770;49.272;11.070;2023-02-01T06:25:03;6.40;;;5.53;;
16029;SDS011;34770;49.272;11.070;2023-02-01T06:27:30;7.43;;;5.57;;
16029;SDS011;34770;49.272;11.070;2023-02-01T06:29:56;5.43;;;4.87;;
16029;SDS011;34770;49.272;11.070;2023-02-01T06:32:22;5.90;;;5.37;;
16029;SDS011;34770;49.272;11.070;2023-02-01T06:34:48;7.87;;;5.80;;
16029;SDS011;34770;49.272;11.070;2023-02-01T06:37:14;6.63;;;6.03;;
16029;SDS011;34770;49.272;11.070;2023-02-01T06:39:39;8.50;;;6.23;;
16029;SDS011;34770;49.272;11.070;2023-02-01T06:42:05;7.40;;;5.77;;
16029;SDS011;34770;49.272;11.070;2023-02-01T06:44:30;6.77;;;5.50;;
16029;SDS011;34770;49.272;11.070;2023-02-01T06:46:56;7.30;;;6.03;;
16029;SDS011;34770;49.272;11.070;2023-02-01T06:49:24;6.57;;;5.77;;
16029;SDS011;34770;49.272;11.070;2023-02-01T06:51:49;7.97;;;5.80;;
16029;SDS011;34770;49.272;11.070;2023-02-01T06:54:14;6.67;;;5.50;;
16029;SDS011;34770;49.272;11.070;2023-02-01T07:35:28;4.77;;;4.27;;
16029;SDS011;34770;49.272;11.070;2023-02-01T07:37:57;6.77;;;4.80;;
16029;SDS011;34770;49.272;11.070;2023-02-01T07:40:23;4.93;;;4.50;;
16029;SDS011;34770;49.272;11.070;2023-02-01T07:42:54;5.23;;;4.67;;
16029;SDS011;34770;49.272;11.070;2023-02-01T07:45:21;4.73;;;4.30;;
16029;SDS011;34770;49.272;11.070;2023-02-01T07:47:47;4.40;;;3.97;;
16029;SDS011;34770;49.272;11.070;2023-02-01T07:50:13;4.10;;;3.80;;
16029;SDS011;34770;49.272;11.070;2023-02-01T07:52:39;4.67;;;4.27;;
16029;SDS011;34770;49.272;11.070;2023-02-01T07:55:06;4.60;;;4.10;;
16029;SDS011;34770;49.272;11.070;2023-02-01T07:57:32;3.83;;;3.53;;
16029;SDS011;34770;49.272;11.070;2023-02-01T07:59:58;4.80;;;3.47;;
16029;SDS011;34770;49.272;11.070;2023-02-01T08:02:42;10.80;;;5.97;;
16029;SDS011;34770;49.272;11.070;2023-02-01T08:05:07;5.30;;;3.80;;
16029;SDS011;34770;49.272;11.070;2023-02-01T08:07:33;3.67;;;3.37;;
16029;SDS011;34770;49.272;11.070;2023-02-01T08:09:59;4.30;;;3.53;;
16029;SDS011;34770;49.272;11.070;2023-02-01T08:12:25;3.83;;;3.07;;
16029;SDS011;34770;49.272;11.070;2023-02-01T08:14:52;3.40;;;3.20;;
16029;SDS011;34770;49.272;11.070;2023-02-01T08:17:18;3.53;;;3.23;;
16029;SDS011;34770;49.272;11.070;2023-02-01T08:19:44;4.60;;;3.33;;
16029;SDS011;34770;49.272;11.070;2023-02-01T08:22:10;3.73;;;2.70;;
16029;SDS011;34770;49.272;11.070;2023-02-01T08:24:35;5.47;;;2.90;;
16029;SDS011;34770;49.272;11.070;2023-02-01T08:27:04;5.53;;;3.03;;
16029;SDS011;34770;49.272;11.070;2023-02-01T08:29:30;5.23;;;2.93;;
16029;SDS011;34770;49.272;11.070;2023-02-01T08:31:55;5.83;;;3.10;;
16029;SDS011;34770;49.272;11.070;2023-02-01T08:34:23;3.10;;;2.80;;
16029;SDS011;34770;49.272;11.070;2023-02-01T08:36:48;4.00;;;3.30;;
16029;SDS011;34770;49.272;11.070;2023-02-01T08:39:14;3.70;;;3.40;;
16029;SDS011;34770;49.272;11.070;2023-02-01T08:41:40;4.20;;;3.40;;
16029;SDS011;34770;49.272;11.070;2023-02-01T08:44:07;4.73;;;4.03;;
16029;SDS011;34770;49.272;11.070;2023-02-01T08:46:32;3.73;;;3.43;;
16029;SDS011;34770;49.272;11.070;2023-02-01T08:48:58;3.83;;;3.27;;
16029;SDS011;34770;49.272;11.070;2023-02-01T08:51:25;4.47;;;3.30;;
16029;SDS011;34770;49.272;11.070;2023-02-01T08:53:50;4.40;;;3.27;;
16029;SDS011;34770;49.272;11.070;2023-02-01T08:56:17;5.83;;;3.67;;
16029;SDS011;34770;49.272;11.070;2023-02-01T08:58:44;3.60;;;3.30;;
16029;SDS011;34770;49.272;11.070;2023-02-01T09:01:12;5.20;;;4.00;;
16029;SDS011;34770;49.272;11.070;2023-02-01T09:03:40;3.90;;;2.80;;
16029;SDS011;34770;49.272;11.070;2023-02-01T09:06:06;6.40;;;3.07;;
16029;SDS011;34770;49.272;11.070;2023-02-01T09:08:37;4.70;;;3.70;;
16029;SDS011;34770;49.272;11.070;2023-02-01T09:11:04;4.43;;;3.97;;
16029;SDS011;34770;49.272;11.070;2023-02-01T09:13:32;5.70;;;4.00;;
16029;SDS011;34770;49.272;11.070;2023-02-01T09:15:58;9.67;;;5.80;;
16029;SDS011;34770;49.272;11.070;2023-02-01T09:18:24;5.97;;;4.93;;
16029;SDS011;34770;49.272;11.070;2023-02-01T09:20:50;10.23;;;5.50;;
16029;SDS011;34770;49.272;11.070;2023-02-01T09:23:16;4.50;;;3.83;;
16029;SDS011;34770;49.272;11.070;2023-02-01T09:25:41;10.13;;;6.33;;
16029;SDS011;34770;49.272;11.070;2023-02-01T09:28:06;11.97;;;4.57;;
16029;SDS011;34770;49.272;11.070;2023-02-01T09:30:34;11.57;;;5.67;;
16029;SDS011;34770;49.272;11.070;2023-02-01T09:33:00;9.00;;;4.97;;
16029;SDS011;34770;49.272;11.070;2023-02-01T09:35:26;9.47;;;4.10;;
16029;SDS011;34770;49.272;11.070;2023-02-01T09:37:52;4.60;;;3.20;;
16029;SDS011;34770;49.272;11.070;2023-02-01T09:40:18;7.20;;;4.00;;
16029;SDS011;34770;49.272;11.070;2023-02-01T09:45:36;5.67;;;4.20;;
16029;SDS011;34770;49.272;11.070;2023-02-01T09:48:14;6.27;;;3.70;;
16029;SDS011;34770;49.272;11.070;2023-02-01T09:50:47;9.13;;;4.50;;
16029;SDS011;34770;49.272;11.070;2023-02-01T09:53:24;6.07;;;3.83;;
16029;SDS011;34770;49.272;11.070;2023-02-01T09:55:55;7.10;;;3.90;;
16029;SDS011;34770;49.272;11.070;2023-02-01T10:01:05;8.27;;;3.80;;
16029;SDS011;34770;49.272;11.070;2023-02-01T10:04:01;7.27;;;3.90;;
16029;SDS011;34770;49.272;11.070;2023-02-01T10:06:38;6.90;;;4.17;;
16029;SDS011;34770;49.272;11.070;2023-02-01T10:09:16;3.63;;;3.17;;
16029;SDS011;34770;49.272;11.070;2023-02-01T10:22:54;13.87;;;3.77;;
16029;SDS011;34770;49.272;11.070;2023-02-01T10:25:33;5.73;;;3.17;;
16029;SDS011;34770;49.272;11.070;2023-02-01T10:28:03;14.13;;;4.40;;
16029;SDS011;34770;49.272;11.070;2023-02-01T10:30:40;6.37;;;2.77;;
16029;SDS011;34770;49.272;11.070;2023-02-01T10:35:51;5.83;;;3.97;;
16029;SDS011;34770;49.272;11.070;2023-02-01T10:38:30;5.70;;;3.80;;
16029;SDS011;34770;49.272;11.070;2023-02-01T10:41:00;12.57;;;3.70;;
16029;SDS011;34770;49.272;11.070;2023-02-01T10:43:28;6.43;;;4.07;;
16029;SDS011;34770;49.272;11.070;2023-02-01T10:45:53;5.47;;;3.10;;
16029;SDS011;34770;49.272;11.070;2023-02-01T10:48:19;10.87;;;4.07;;
16029;SDS011;34770;49.272;11.070;2023-02-01T10:53:28;6.13;;;3.50;;
16029;SDS011;34770;49.272;11.070;2023-02-01T10:56:11;14.30;;;4.73;;
16029;SDS011;34770;49.272;11.070;2023-02-01T10:58:44;8.90;;;3.87;;
16029;SDS011;34770;49.272;11.070;2023-02-01T11:01:19;9.60;;;3.60;;
16029;SDS011;34770;49.272;11.070;2023-02-01T11:03:56;6.53;;;3.47;;
16029;SDS011;34770;49.272;11.070;2023-02-01T11:08:54;8.60;;;4.00;;
16029;SDS011;34770;49.272;11.070;2023-02-01T11:11:22;5.03;;;2.97;;
16029;SDS011;34770;49.272;11.070;2023-02-01T11:13:51;4.60;;;2.93;;
16029;SDS011;34770;49.272;11.070;2023-02-01T11:16:36;5.03;;;3.30;;
16029;SDS011;34770;49.272;11.070;2023-02-01T11:19:04;6.30;;;2.73;;
16029;SDS011;34770;49.272;11.070;2023-02-01T11:21:30;5.53;;;3.17;;
16029;SDS011;34770;49.272;11.070;2023-02-01T11:24:00;5.83;;;2.57;;
16029;SDS011;34770;49.272;11.070;2023-02-01T11:26:30;8.50;;;3.77;;
16029;SDS011;34770;49.272;11.070;2023-02-01T11:29:04;8.03;;;3.00;;
16029;SDS011;34770;49.272;11.070;2023-02-01T11:31:36;8.27;;;3.10;;
16029;SDS011;34770;49.272;11.070;2023-02-01T11:34:08;9.50;;;3.20;;
16029;SDS011;34770;49.272;11.070;2023-02-01T11:36:38;10.67;;;2.97;;
16029;SDS011;34770;49.272;11.070;2023-02-01T11:41:43;6.87;;;2.87;;
16029;SDS011;34770;49.272;11.070;2023-02-01T11:44:22;12.10;;;3.50;;
16029;SDS011;34770;49.272;11.070;2023-02-01T11:46:55;7.43;;;3.37;;
16029;SDS011;34770;49.272;11.070;2023-02-01T11:49:21;6.93;;;3.07;;
16029;SDS011;34770;49.272;11.070;2023-02-01T11:51:58;5.93;;;2.77;;
16029;SDS011;34770;49.272;11.070;2023-02-01T12:13:55;4.43;;;2.90;;
16029;SDS011;34770;49.272;11.070;2023-02-01T12:30:48;4.00;;;3.07;;
16029;SDS011;34770;49.272;11.070;2023-02-01T12:36:12;5.23;;;3.03;;
16029;SDS011;34770;49.272;11.070;2023-02-01T12:44:21;5.93;;;2.93;;
16029;SDS011;34770;49.272;11.070;2023-02-01T12:46:54;8.07;;;3.27;;
16029;SDS011;34770;49.272;11.070;2023-02-01T12:49:35;8.73;;;3.50;;
16029;SDS011;34770;49.272;11.070;2023-02-01T12:52:06;10.30;;;3.60;;
16029;SDS011;34770;49.272;11.070;2023-02-01T12:54:49;8.67;;;4.03;;
16029;SDS011;34770;49.272;11.070;2023-02-01T13:00:05;4.93;;;3.20;;
16029;SDS011;34770;49.272;11.070;2023-02-01T13:08:08;8.13;;;3.87;;
16029;SDS011;34770;49.272;11.070;2023-02-01T13:10:38;5.40;;;3.83;;
16029;SDS011;34770;49.272;11.070;2023-02-01T13:13:19;11.73;;;4.10;;
16029;SDS011;34770;49.272;11.070;2023-02-01T13:15:55;5.70;;;3.87;;
16029;SDS011;34770;49.272;11.070;2023-02-01T13:18:41;8.73;;;3.23;;
16029;SDS011;34770;49.272;11.070;2023-02-01T13:21:28;9.03;;;3.27;;
16029;SDS011;34770;49.272;11.070;2023-02-01T13:23:58;7.33;;;2.77;;
16029;SDS011;34770;49.272;11.070;2023-02-01T13:26:24;6.43;;;3.43;;
16029;SDS011;34770;49.272;11.070;2023-02-01T13:28:50;8.07;;;3.77;;
16029;SDS011;34770;49.272;11.070;2023-02-01T13:39:45;10.47;;;4.27;;
16029;SDS011;34770;49.272;11.070;2023-02-01T13:42:33;8.93;;;3.40;;
16029;SDS011;34770;49.272;11.070;2023-02-01T13:45:14;9.93;;;3.60;;
16029;SDS011;34770;49.272;11.070;2023-02-01T13:47:43;8.33;;;3.10;;
16029;SDS011;34770;49.272;11.070;2023-02-01T13:50:28;9.43;;;3.33;;
16029;SDS011;34770;49.272;11.070;2023-02-01T13:55:40;7.40;;;2.93;;
16029;SDS011;34770;49.272;11.070;2023-02-01T13:58:17;10.20;;;3.40;;
16029;SDS011;34770;49.272;11.070;2023-02-01T14:00:45;5.60;;;3.37;;
16029;SDS011;34770;49.272;11.070;2023-02-01T14:03:13;8.23;;;2.93;;
16029;SDS011;34770;49.272;11.070;2023-02-01T14:10:47;7.97;;;3.00;;
16029;SDS011;34770;49.272;11.070;2023-02-01T14:24:20;11.23;;;4.10;;
16029;SDS011;34770;49.272;11.070;2023-02-01T14:26:50;9.63;;;4.03;;
16029;SDS011;34770;49.272;11.070;2023-02-01T14:32:06;12.43;;;4.40;;
16029;SDS011;34770;49.272;11.070;2023-02-01T14:39:53;4.97;;;3.03;;
16029;SDS011;34770;49.272;11.070;2023-02-01T14:43:00;5.03;;;3.53;;
16029;SDS011;34770;49.272;11.070;2023-02-01T14:47:47;9.73;;;4.47;;
16029;SDS011;34770;49.272;11.070;2023-02-01T14:58:06;12.03;;;4.87;;
16029;SDS011;34770;49.272;11.070;2023-02-01T15:01:04;7.73;;;3.80;;
16029;SDS011;34770;49.272;11.070;2023-02-01T15:06:40;11.13;;;3.87;;
16029;SDS011;34770;49.272;11.070;2023-02-01T15:11:53;9.20;;;3.87;;
16029;SDS011;34770;49.272;11.070;2023-02-01T15:14:25;5.67;;;3.57;;
16029;SDS011;34770;49.272;11.070;2023-02-01T15:16:52;8.47;;;3.57;;
16029;SDS011;34770;49.272;11.070;2023-02-01T15:19:21;6.57;;;2.87;;
16029;SDS011;34770;49.272;11.070;2023-02-01T15:21:49;9.03;;;3.50;;
16029;SDS011;34770;49.272;11.070;2023-02-01T15:24:24;7.80;;;3.40;;
16029;SDS011;34770;49.272;11.070;2023-02-01T15:26:51;10.53;;;4.70;;
16029;SDS011;34770;49.272;11.070;2023-02-01T15:29:18;10.57;;;4.50;;
16029;SDS011;34770;49.272;11.070;2023-02-01T15:31:47;8.77;;;3.03;;
16029;SDS011;34770;49.272;11.070;2023-02-01T15:34:14;8.23;;;2.50;;
16029;SDS011;34770;49.272;11.070;2023-02-01T15:36:40;6.07;;;3.70;;
16029;SDS011;34770;49.272;11.070;2023-02-01T15:39:23;9.60;;;3.30;;
16029;SDS011;34770;49.272;11.070;2023-02-01T15:41:57;5.50;;;2.53;;
16029;SDS011;34770;49.272;11.070;2023-02-01T15:44:28;3.70;;;2.27;;
16029;SDS011;34770;49.272;11.070;2023-02-01T15:46:55;4.00;;;2.23;;
16029;SDS011;34770;49.272;11.070;2023-02-01T15:51:58;8.37;;;3.47;;
16029;SDS011;34770;49.272;11.070;2023-02-01T15:54:26;6.90;;;3.23;;
16029;SDS011;34770;49.272;11.070;2023-02-01T15:56:56;14.93;;;3.20;;
16029;SDS011;34770;49.272;11.070;2023-02-01T15:59:29;12.07;;;3.27;;
16029;SDS011;34770;49.272;11.070;2023-02-01T16:02:02;6.27;;;3.70;;
16029;SDS011;34770;49.272;11.070;2023-02-01T16:04:28;7.10;;;2.83;;
16029;SDS011;34770;49.272;11.070;2023-02-01T16:07:01;8.37;;;2.80;;
16029;SDS011;34770;49.272;11.070;2023-02-01T16:09:39;3.90;;;3.00;;
16029;SDS011;34770;49.272;11.070;2023-02-01T16:12:22;8.27;;;2.63;;
16029;SDS011;34770;49.272;11.070;2023-02-01T16:14:53;7.80;;;3.17;;
16029;SDS011;34770;49.272;11.070;2023-02-01T16:17:18;10.43;;;3.70;;
16029;SDS011;34770;49.272;11.070;2023-02-01T16:19:44;8.70;;;4.67;;
16029;SDS011;34770;49.272;11.070;2023-02-01T16:22:09;4.23;;;2.63;;
16029;SDS011;34770;49.272;11.070;2023-02-01T16:24:35;9.80;;;3.90;;
16029;SDS011;34770;49.272;11.070;2023-02-01T16:27:00;6.80;;;2.70;;
16029;SDS011;34770;49.272;11.070;2023-02-01T16:29:26;8.77;;;3.37;;
16029;SDS011;34770;49.272;11.070;2023-02-01T16:31:51;14.40;;;4.73;;
16029;SDS011;34770;49.272;11.070;2023-02-01T16:34:17;7.20;;;3.60;;
16029;SDS011;34770;49.272;11.070;2023-02-01T16:36:43;7.60;;;3.07;;
16029;SDS011;34770;49.272;11.070;2023-02-01T16:39:12;4.90;;;2.87;;
16029;SDS011;34770;49.272;11.070;2023-02-01T16:41:38;11.00;;;3.33;;
16029;SDS011;34770;49.272;11.070;2023-02-01T16:44:04;7.70;;;2.60;;
16029;SDS011;34770;49.272;11.070;2023-02-01T16:46:32;11.53;;;3.37;;
16029;SDS011;34770;49.272;11.070;2023-02-01T16:49:00;6.53;;;2.73;;
16029;SDS011;34770;49.272;11.070;2023-02-01T16:51:28;7.33;;;3.33;;
16029;SDS011;34770;49.272;11.070;2023-02-01T16:53:58;14.27;;;4.13;;
16029;SDS011;34770;49.272;11.070;2023-02-01T16:56:28;7.57;;;3.90;;
16029;SDS011;34770;49.272;11.070;2023-02-01T16:58:55;6.43;;;3.27;;
16029;SDS011;34770;49.272;11.070;2023-02-01T17:01:21;10.87;;;3.50;;
16029;SDS011;34770;49.272;11.070;2023-02-01T17:03:47;8.10;;;4.60;;
16029;SDS011;34770;49.272;11.070;2023-02-01T17:06:16;6.83;;;2.60;;
16029;SDS011;34770;49.272;11.070;2023-02-01T17:08:51;5.63;;;2.53;;
16029;SDS011;34770;49.272;11.070;2023-02-01T17:11:19;9.77;;;3.50;;
16029;SDS011;34770;49.272;11.070;2023-02-01T17:13:45;8.13;;;3.53;;
16029;SDS011;34770;49.272;11.070;2023-02-01T17:24:22;7.00;;;4.37;;
16029;SDS011;34770;49.272;11.070;2023-02-01T17:26:50;7.67;;;4.27;;
16029;SDS011;34770;49.272;11.070;2023-02-01T17:29:16;12.73;;;3.83;;
16029;SDS011;34770;49.272;11.070;2023-02-01T17:31:47;24.97;;;3.90;;
16029;SDS011;34770;49.272;11.070;2023-02-01T17:34:15;9.83;;;3.40;;
16029;SDS011;34770;49.272;11.070;2023-02-01T17:36:43;8.17;;;3.40;;
16029;SDS011;34770;49.272;11.070;2023-02-01T17:39:09;9.27;;;2.77;;
16029;SDS011;34770;49.272;11.070;2023-02-01T17:41:35;9.60;;;3.00;;
16029;SDS011;34770;49.272;11.070;2023-02-01T17:44:02;8.57;;;3.13;;
16029;SDS011;34770;49.272;11.070;2023-02-01T17:46:28;7.10;;;3.43;;
16029;SDS011;34770;49.272;11.070;2023-02-01T17:48:56;7.90;;;3.53;;
16029;SDS011;34770;49.272;11.070;2023-02-01T17:51:25;10.67;;;4.23;;
16029;SDS011;34770;49.272;11.070;2023-02-01T17:53:52;10.93;;;4.20;;
16029;SDS011;34770;49.272;11.070;2023-02-01T17:56:20;8.43;;;3.23;;
16029;SDS011;34770;49.272;11.070;2023-02-01T17:58:48;4.87;;;2.53;;
16029;SDS011;34770;49.272;11.070;2023-02-01T18:01:15;10.63;;;3.50;;
16029;SDS011;34770;49.272;11.070;2023-02-01T18:03:43;7.07;;;3.67;;
16029;SDS011;34770;49.272;11.070;2023-02-01T18:06:13;12.30;;;4.60;;
16029;SDS011;34770;49.272;11.070;2023-02-01T18:08:40;4.90;;;3.30;;
16029;SDS011;34770;49.272;11.070;2023-02-01T18:11:11;10.40;;;4.10;;
16029;SDS011;34770;49.272;11.070;2023-02-01T18:13:38;15.60;;;4.93;;
16029;SDS011;34770;49.272;11.070;2023-02-01T18:16:04;9.63;;;3.73;;
16029;SDS011;34770;49.272;11.070;2023-02-01T18:18:30;9.47;;;3.60;;
16029;SDS011;34770;49.272;11.070;2023-02-01T18:20:58;9.03;;;3.57;;